sensor_id;sensor_type;location;lat;lon;timestamp;P1;durP1;ratioP1;P2;durP2;ratioP2
40717;SDS011;26405;51.850;-2.246;2022-08-11T00:01:18;8.77;;;3.40;;
40717;SDS011;26405;51.850;-2.246;2022-08-11T00:03:47;8.50;;;3.50;;
40717;SDS011;26405;51.850;-2.246;2022-08-11T00:06:14;10.35;;;3.58;;
40717;SDS011;26405;51.850;-2.246;2022-08-11T00:08:40;20.05;;;9.40;;
40717;SDS011;26405;51.850;-2.246;2022-08-11T00:11:06;22.33;;;7.10;;
40717;SDS011;26405;51.850;-2.246;2022-08-11T00:13:39;15.50;;;5.80;;
40717;SDS011;26405;51.850;-2.246;2022-08-11T00:16:13;14.23;;;5.25;;
40717;SDS011;26405;51.850;-2.246;2022-08-11T00:18:46;17.92;;;6.40;;
40717;SDS011;26405;51.850;-2.246;2022-08-11T00:21:12;21.58;;;6.35;;
40717;SDS011;26405;51.850;-2.246;2022-08-11T00:23:45;24.33;;;6.67;;
40717;SDS011;26405;51.850;-2.246;2022-08-11T00:26:11;22.52;;;7.95;;
40717;SDS011;26405;51.850;-2.246;2022-08-11T00:28:37;19.98;;;8.30;;
40717;SDS011;26405;51.850;-2.246;2022-08-11T00:31:25;18.63;;;6.57;;
40717;SDS011;26405;51.850;-2.246;2022-08-11T00:33:48;21.25;;;7.78;;
40717;SDS011;26405;51.850;-2.246;2022-08-11T00:38:40;20.10;;;8.50;;
40717;SDS011;26405;51.850;-2.246;2022-08-11T00:44:06;15.88;;;5.47;;
40717;SDS011;26405;51.850;-2.246;2022-08-11T00:46:39;15.43;;;6.00;;
40717;SDS011;26405;51.850;-2.246;2022-08-11T00:54:25;22.08;;;7.20;;
40717;SDS011;26405;51.850;-2.246;2022-08-11T01:15:44;12.43;;;4.75;;
40717;SDS011;26405;51.850;-2.246;2022-08-11T01:21:02;14.95;;;4.80;;
40717;SDS011;26405;51.850;-2.246;2022-08-11T01:26:21;11.25;;;3.60;;
40717;SDS011;26405;51.850;-2.246;2022-08-11T01:29:15;12.38;;;3.75;;
40717;SDS011;26405;51.850;-2.246;2022-08-11T01:36:46;12.10;;;4.40;;
40717;SDS011;26405;51.850;-2.246;2022-08-11T01:50:17;8.00;;;3.08;;
40717;SDS011;26405;51.850;-2.246;2022-08-11T01:55:44;21.42;;;10.73;;
40717;SDS011;26405;51.850;-2.246;2022-08-11T02:00:51;17.77;;;7.50;;
40717;SDS011;26405;51.850;-2.246;2022-08-11T02:03:53;17.80;;;7.82;;
40717;SDS011;26405;51.850;-2.246;2022-08-11T02:06:15;18.13;;;7.80;;
40717;SDS011;26405;51.850;-2.246;2022-08-11T02:11:27;15.67;;;5.23;;
40717;SDS011;26405;51.850;-2.246;2022-08-11T02:24:40;14.80;;;4.45;;
40717;SDS011;26405;51.850;-2.246;2022-08-11T02:27:14;14.43;;;4.63;;
40717;SDS011;26405;51.850;-2.246;2022-08-11T02:29:49;10.00;;;3.60;;
40717;SDS011;26405;51.850;-2.246;2022-08-11T02:32:28;17.33;;;6.72;;
40717;SDS011;26405;51.850;-2.246;2022-08-11T02:35:18;21.77;;;10.35;;
40717;SDS011;26405;51.850;-2.246;2022-08-11T02:40:29;16.58;;;6.53;;
40717;SDS011;26405;51.850;-2.246;2022-08-11T02:43:02;18.98;;;7.95;;
40717;SDS011;26405;51.850;-2.246;2022-08-11T02:48:15;16.55;;;6.85;;
40717;SDS011;26405;51.850;-2.246;2022-08-11T02:58:50;17.05;;;7.55;;
40717;SDS011;26405;51.850;-2.246;2022-08-11T03:01:49;14.90;;;5.55;;
40717;SDS011;26405;51.850;-2.246;2022-08-11T03:04:26;13.25;;;5.32;;
40717;SDS011;26405;51.850;-2.246;2022-08-11T03:09:39;14.03;;;5.27;;
40717;SDS011;26405;51.850;-2.246;2022-08-11T03:12:10;10.63;;;3.92;;
40717;SDS011;26405;51.850;-2.246;2022-08-11T03:15:06;10.88;;;3.58;;
40717;SDS011;26405;51.850;-2.246;2022-08-11T03:18:03;10.13;;;4.03;;
40717;SDS011;26405;51.850;-2.246;2022-08-11T03:31:09;11.50;;;4.45;;
40717;SDS011;26405;51.850;-2.246;2022-08-11T03:33:43;12.53;;;4.83;;
40717;SDS011;26405;51.850;-2.246;2022-08-11T03:39:38;12.00;;;4.35;;
40717;SDS011;26405;51.850;-2.246;2022-08-11T03:42:15;6.90;;;3.20;;
40717;SDS011;26405;51.850;-2.246;2022-08-11T04:08:51;7.70;;;3.60;;
40717;SDS011;26405;51.850;-2.246;2022-08-11T04:19:51;10.55;;;3.50;;
40717;SDS011;26405;51.850;-2.246;2022-08-11T04:30:04;13.32;;;3.92;;
40717;SDS011;26405;51.850;-2.246;2022-08-11T04:43:14;8.07;;;3.30;;
40717;SDS011;26405;51.850;-2.246;2022-08-11T04:53:59;9.32;;;3.25;;
40717;SDS011;26405;51.850;-2.246;2022-08-11T04:56:43;6.93;;;3.47;;
40717;SDS011;26405;51.850;-2.246;2022-08-11T04:59:35;8.10;;;3.07;;
40717;SDS011;26405;51.850;-2.246;2022-08-11T05:02:28;8.52;;;2.97;;
40717;SDS011;26405;51.850;-2.246;2022-08-11T05:13:07;11.98;;;3.00;;
40717;SDS011;26405;51.850;-2.246;2022-08-11T05:15:52;11.10;;;3.20;;
40717;SDS011;26405;51.850;-2.246;2022-08-11T05:18:44;10.07;;;3.33;;
40717;SDS011;26405;51.850;-2.246;2022-08-11T05:21:31;8.00;;;2.72;;
40717;SDS011;26405;51.850;-2.246;2022-08-11T05:24:19;11.95;;;3.10;;
40717;SDS011;26405;51.850;-2.246;2022-08-11T05:27:04;9.13;;;3.15;;
40717;SDS011;26405;51.850;-2.246;2022-08-11T05:30:11;10.52;;;3.28;;
40717;SDS011;26405;51.850;-2.246;2022-08-11T05:35:48;9.10;;;2.90;;
40717;SDS011;26405;51.850;-2.246;2022-08-11T05:38:24;9.25;;;2.83;;
40717;SDS011;26405;51.850;-2.246;2022-08-11T05:41:12;10.40;;;3.05;;
40717;SDS011;26405;51.850;-2.246;2022-08-11T05:43:57;6.85;;;3.20;;
40717;SDS011;26405;51.850;-2.246;2022-08-11T05:46:42;13.07;;;3.30;;
40717;SDS011;26405;51.850;-2.246;2022-08-11T05:49:28;10.10;;;2.70;;
40717;SDS011;26405;51.850;-2.246;2022-08-11T05:52:16;11.55;;;3.50;;
40717;SDS011;26405;51.850;-2.246;2022-08-11T05:55:01;9.20;;;3.00;;
40717;SDS011;26405;51.850;-2.246;2022-08-11T05:57:46;12.23;;;3.20;;
40717;SDS011;26405;51.850;-2.246;2022-08-11T06:00:11;8.77;;;2.80;;
40717;SDS011;26405;51.850;-2.246;2022-08-11T06:05:03;14.38;;;3.40;;
40717;SDS011;26405;51.850;-2.246;2022-08-11T06:07:29;6.90;;;2.67;;
40717;SDS011;26405;51.850;-2.246;2022-08-11T06:09:55;10.43;;;2.83;;
40717;SDS011;26405;51.850;-2.246;2022-08-11T06:12:22;8.57;;;2.90;;
40717;SDS011;26405;51.850;-2.246;2022-08-11T06:14:49;7.40;;;2.80;;
40717;SDS011;26405;51.850;-2.246;2022-08-11T06:17:21;7.25;;;2.90;;
40717;SDS011;26405;51.850;-2.246;2022-08-11T06:19:47;9.52;;;3.30;;
40717;SDS011;26405;51.850;-2.246;2022-08-11T06:22:12;6.27;;;2.87;;
40717;SDS011;26405;51.850;-2.246;2022-08-11T06:24:49;9.02;;;3.10;;
40717;SDS011;26405;51.850;-2.246;2022-08-11T06:27:21;9.60;;;2.92;;
40717;SDS011;26405;51.850;-2.246;2022-08-11T06:29:48;9.20;;;2.97;;
40717;SDS011;26405;51.850;-2.246;2022-08-11T06:32:14;10.77;;;3.10;;
40717;SDS011;26405;51.850;-2.246;2022-08-11T06:37:17;11.23;;;3.35;;
40717;SDS011;26405;51.850;-2.246;2022-08-11T06:40:20;8.02;;;3.00;;
40717;SDS011;26405;51.850;-2.246;2022-08-11T06:42:47;10.23;;;3.03;;
40717;SDS011;26405;51.850;-2.246;2022-08-11T06:45:22;9.65;;;3.22;;
40717;SDS011;26405;51.850;-2.246;2022-08-11T06:47:49;4.43;;;2.63;;
40717;SDS011;26405;51.850;-2.246;2022-08-11T06:50:16;9.25;;;3.13;;
40717;SDS011;26405;51.850;-2.246;2022-08-11T06:53:01;13.18;;;3.45;;
40717;SDS011;26405;51.850;-2.246;2022-08-11T06:55:29;10.95;;;3.20;;
40717;SDS011;26405;51.850;-2.246;2022-08-11T06:58:15;8.90;;;3.38;;
40717;SDS011;26405;51.850;-2.246;2022-08-11T07:01:00;10.77;;;3.10;;
40717;SDS011;26405;51.850;-2.246;2022-08-11T07:03:28;8.25;;;3.00;;
40717;SDS011;26405;51.850;-2.246;2022-08-11T07:06:04;7.10;;;2.78;;
40717;SDS011;26405;51.850;-2.246;2022-08-11T07:08:43;16.65;;;3.55;;
40717;SDS011;26405;51.850;-2.246;2022-08-11T07:14:29;13.52;;;3.40;;
40717;SDS011;26405;51.850;-2.246;2022-08-11T07:17:24;16.77;;;3.45;;
40717;SDS011;26405;51.850;-2.246;2022-08-11T07:19:57;14.23;;;3.40;;
40717;SDS011;26405;51.850;-2.246;2022-08-11T07:22:42;11.90;;;3.13;;
40717;SDS011;26405;51.850;-2.246;2022-08-11T07:25:27;16.50;;;3.72;;
40717;SDS011;26405;51.850;-2.246;2022-08-11T07:28:22;14.43;;;3.50;;
40717;SDS011;26405;51.850;-2.246;2022-08-11T07:31:36;13.90;;;3.92;;
40717;SDS011;26405;51.850;-2.246;2022-08-11T07:36:31;7.97;;;3.33;;
40717;SDS011;26405;51.850;-2.246;2022-08-11T07:38:59;7.85;;;3.38;;
40717;SDS011;26405;51.850;-2.246;2022-08-11T07:41:24;13.90;;;3.23;;
40717;SDS011;26405;51.850;-2.246;2022-08-11T07:43:54;17.80;;;3.20;;
40717;SDS011;26405;51.850;-2.246;2022-08-11T07:46:19;13.05;;;3.80;;
40717;SDS011;26405;51.850;-2.246;2022-08-11T07:49:05;12.50;;;3.15;;
40717;SDS011;26405;51.850;-2.246;2022-08-11T07:51:50;15.20;;;3.53;;
40717;SDS011;26405;51.850;-2.246;2022-08-11T07:54:34;17.73;;;3.30;;
40717;SDS011;26405;51.850;-2.246;2022-08-11T07:57:00;13.43;;;3.67;;
40717;SDS011;26405;51.850;-2.246;2022-08-11T07:59:45;12.15;;;3.20;;
40717;SDS011;26405;51.850;-2.246;2022-08-11T08:02:29;16.33;;;4.00;;
40717;SDS011;26405;51.850;-2.246;2022-08-11T08:05:13;12.25;;;3.08;;
40717;SDS011;26405;51.850;-2.246;2022-08-11T08:07:57;11.45;;;3.20;;
40717;SDS011;26405;51.850;-2.246;2022-08-11T08:10:41;17.27;;;3.30;;
40717;SDS011;26405;51.850;-2.246;2022-08-11T08:13:25;10.98;;;3.00;;
40717;SDS011;26405;51.850;-2.246;2022-08-11T08:16:09;11.07;;;3.30;;
40717;SDS011;26405;51.850;-2.246;2022-08-11T08:18:53;10.48;;;3.53;;
40717;SDS011;26405;51.850;-2.246;2022-08-11T08:21:18;11.30;;;3.00;;
40717;SDS011;26405;51.850;-2.246;2022-08-11T08:23:44;11.50;;;2.90;;
40717;SDS011;26405;51.850;-2.246;2022-08-11T08:26:11;13.88;;;3.53;;
40717;SDS011;26405;51.850;-2.246;2022-08-11T08:28:56;13.07;;;3.42;;
40717;SDS011;26405;51.850;-2.246;2022-08-11T08:31:45;10.73;;;3.05;;
40717;SDS011;26405;51.850;-2.246;2022-08-11T08:34:12;10.88;;;3.25;;
40717;SDS011;26405;51.850;-2.246;2022-08-11T08:36:39;12.95;;;3.15;;
40717;SDS011;26405;51.850;-2.246;2022-08-11T08:39:06;12.35;;;3.00;;
40717;SDS011;26405;51.850;-2.246;2022-08-11T08:41:31;12.97;;;3.07;;
40717;SDS011;26405;51.850;-2.246;2022-08-11T08:43:58;14.20;;;3.70;;
40717;SDS011;26405;51.850;-2.246;2022-08-11T08:46:27;11.05;;;2.83;;
40717;SDS011;26405;51.850;-2.246;2022-08-11T08:48:55;12.63;;;3.00;;
40717;SDS011;26405;51.850;-2.246;2022-08-11T08:51:24;13.27;;;3.22;;
40717;SDS011;26405;51.850;-2.246;2022-08-11T08:54:17;8.60;;;3.10;;
40717;SDS011;26405;51.850;-2.246;2022-08-11T08:56:43;15.40;;;3.20;;
40717;SDS011;26405;51.850;-2.246;2022-08-11T08:59:09;15.43;;;3.33;;
40717;SDS011;26405;51.850;-2.246;2022-08-11T09:01:47;9.68;;;3.00;;
40717;SDS011;26405;51.850;-2.246;2022-08-11T09:04:14;13.75;;;2.88;;
40717;SDS011;26405;51.850;-2.246;2022-08-11T09:06:40;11.63;;;3.03;;
40717;SDS011;26405;51.850;-2.246;2022-08-11T09:09:07;7.65;;;2.53;;
40717;SDS011;26405;51.850;-2.246;2022-08-11T09:11:34;10.25;;;2.70;;
40717;SDS011;26405;51.850;-2.246;2022-08-11T09:14:21;9.80;;;2.53;;
40717;SDS011;26405;51.850;-2.246;2022-08-11T09:16:49;11.25;;;2.97;;
40717;SDS011;26405;51.850;-2.246;2022-08-11T09:19:17;11.63;;;2.92;;
40717;SDS011;26405;51.850;-2.246;2022-08-11T09:21:47;11.65;;;2.90;;
40717;SDS011;26405;51.850;-2.246;2022-08-11T09:24:35;7.90;;;2.85;;
40717;SDS011;26405;51.850;-2.246;2022-08-11T09:27:20;6.97;;;2.45;;
40717;SDS011;26405;51.850;-2.246;2022-08-11T09:32:11;8.23;;;2.45;;
40717;SDS011;26405;51.850;-2.246;2022-08-11T09:34:38;6.88;;;2.53;;
40717;SDS011;26405;51.850;-2.246;2022-08-11T09:37:04;6.50;;;2.60;;
40717;SDS011;26405;51.850;-2.246;2022-08-11T09:39:49;9.30;;;2.70;;
40717;SDS011;26405;51.850;-2.246;2022-08-11T09:42:33;7.13;;;2.28;;
40717;SDS011;26405;51.850;-2.246;2022-08-11T09:45:17;8.50;;;2.40;;
40717;SDS011;26405;51.850;-2.246;2022-08-11T09:47:43;9.00;;;2.75;;
40717;SDS011;26405;51.850;-2.246;2022-08-11T09:50:09;7.80;;;2.42;;
40717;SDS011;26405;51.850;-2.246;2022-08-11T09:55:00;6.80;;;2.42;;
40717;SDS011;26405;51.850;-2.246;2022-08-11T09:57:26;9.18;;;2.58;;
40717;SDS011;26405;51.850;-2.246;2022-08-11T10:00:10;8.73;;;2.50;;
40717;SDS011;26405;51.850;-2.246;2022-08-11T10:05:01;4.90;;;2.23;;
40717;SDS011;26405;51.850;-2.246;2022-08-11T10:07:46;10.70;;;2.50;;
40717;SDS011;26405;51.850;-2.246;2022-08-11T10:10:16;7.65;;;2.58;;
40717;SDS011;26405;51.850;-2.246;2022-08-11T10:12:47;8.23;;;2.40;;
40717;SDS011;26405;51.850;-2.246;2022-08-11T10:15:15;3.85;;;2.03;;
40717;SDS011;26405;51.850;-2.246;2022-08-11T10:20:42;4.80;;;2.20;;
40717;SDS011;26405;51.850;-2.246;2022-08-11T10:23:09;8.80;;;2.90;;
40717;SDS011;26405;51.850;-2.246;2022-08-11T10:25:55;9.20;;;2.08;;
40717;SDS011;26405;51.850;-2.246;2022-08-11T10:28:39;4.10;;;2.20;;
40717;SDS011;26405;51.850;-2.246;2022-08-11T10:31:05;6.43;;;2.10;;
40717;SDS011;26405;51.850;-2.246;2022-08-11T10:33:49;4.70;;;2.22;;
40717;SDS011;26405;51.850;-2.246;2022-08-11T10:36:24;6.30;;;2.20;;
40717;SDS011;26405;51.850;-2.246;2022-08-11T10:38:50;11.20;;;2.55;;
40717;SDS011;26405;51.850;-2.246;2022-08-11T10:41:16;6.15;;;2.40;;
40717;SDS011;26405;51.850;-2.246;2022-08-11T10:44:20;4.07;;;2.17;;
40717;SDS011;26405;51.850;-2.246;2022-08-11T10:49:30;4.97;;;2.05;;
40717;SDS011;26405;51.850;-2.246;2022-08-11T10:54:40;5.60;;;2.22;;
40717;SDS011;26405;51.850;-2.246;2022-08-11T10:57:25;7.15;;;2.17;;
40717;SDS011;26405;51.850;-2.246;2022-08-11T11:00:09;3.50;;;2.03;;
40717;SDS011;26405;51.850;-2.246;2022-08-11T11:02:39;2.58;;;2.10;;
40717;SDS011;26405;51.850;-2.246;2022-08-11T11:07:55;8.35;;;2.35;;
40717;SDS011;26405;51.850;-2.246;2022-08-11T11:12:51;6.72;;;1.98;;
40717;SDS011;26405;51.850;-2.246;2022-08-11T11:15:36;3.00;;;2.20;;
40717;SDS011;26405;51.850;-2.246;2022-08-11T11:18:26;7.90;;;2.30;;
40717;SDS011;26405;51.850;-2.246;2022-08-11T11:21:02;7.07;;;2.70;;
40717;SDS011;26405;51.850;-2.246;2022-08-11T11:36:50;4.45;;;2.30;;
40717;SDS011;26405;51.850;-2.246;2022-08-11T11:39:22;3.72;;;2.13;;
40717;SDS011;26405;51.850;-2.246;2022-08-11T11:41:48;2.42;;;2.00;;
40717;SDS011;26405;51.850;-2.246;2022-08-11T11:44:13;26.08;;;5.25;;
40717;SDS011;26405;51.850;-2.246;2022-08-11T11:46:41;10.52;;;2.75;;
40717;SDS011;26405;51.850;-2.246;2022-08-11T11:49:09;6.50;;;2.40;;
40717;SDS011;26405;51.850;-2.246;2022-08-11T11:51:35;10.32;;;3.22;;
40717;SDS011;26405;51.850;-2.246;2022-08-11T11:54:01;10.13;;;2.72;;
40717;SDS011;26405;51.850;-2.246;2022-08-11T11:56:28;8.13;;;2.50;;
40717;SDS011;26405;51.850;-2.246;2022-08-11T11:58:54;5.47;;;2.35;;
40717;SDS011;26405;51.850;-2.246;2022-08-11T12:01:38;2.93;;;2.40;;
40717;SDS011;26405;51.850;-2.246;2022-08-11T12:04:04;4.18;;;2.20;;
40717;SDS011;26405;51.850;-2.246;2022-08-11T12:06:30;3.15;;;2.13;;
40717;SDS011;26405;51.850;-2.246;2022-08-11T12:08:57;4.45;;;2.20;;
40717;SDS011;26405;51.850;-2.246;2022-08-11T12:11:22;3.17;;;2.35;;
40717;SDS011;26405;51.850;-2.246;2022-08-11T12:14:07;2.63;;;2.20;;
40717;SDS011;26405;51.850;-2.246;2022-08-11T12:16:34;2.88;;;2.10;;
40717;SDS011;26405;51.850;-2.246;2022-08-11T12:19:00;4.97;;;2.20;;
40717;SDS011;26405;51.850;-2.246;2022-08-11T12:21:28;6.00;;;2.28;;
40717;SDS011;26405;51.850;-2.246;2022-08-11T12:23:58;2.83;;;2.20;;
40717;SDS011;26405;51.850;-2.246;2022-08-11T12:26:42;4.90;;;2.47;;
40717;SDS011;26405;51.850;-2.246;2022-08-11T12:29:27;3.65;;;2.15;;
40717;SDS011;26405;51.850;-2.246;2022-08-11T12:31:53;6.25;;;2.45;;
40717;SDS011;26405;51.850;-2.246;2022-08-11T12:34:19;3.45;;;2.20;;
40717;SDS011;26405;51.850;-2.246;2022-08-11T12:36:48;3.83;;;1.92;;
40717;SDS011;26405;51.850;-2.246;2022-08-11T12:39:22;3.80;;;2.00;;
40717;SDS011;26405;51.850;-2.246;2022-08-11T12:42:07;2.33;;;2.03;;
40717;SDS011;26405;51.850;-2.246;2022-08-11T12:47:35;2.37;;;2.20;;
40717;SDS011;26405;51.850;-2.246;2022-08-11T12:50:20;2.10;;;1.95;;
40717;SDS011;26405;51.850;-2.246;2022-08-11T12:53:04;5.07;;;2.50;;
40717;SDS011;26405;51.850;-2.246;2022-08-11T12:55:31;4.65;;;2.33;;
40717;SDS011;26405;51.850;-2.246;2022-08-11T12:58:16;5.80;;;2.37;;
40717;SDS011;26405;51.850;-2.246;2022-08-11T13:00:44;3.92;;;2.40;;
40717;SDS011;26405;51.850;-2.246;2022-08-11T13:03:28;7.82;;;2.35;;
40717;SDS011;26405;51.850;-2.246;2022-08-11T13:06:14;2.97;;;2.22;;
40717;SDS011;26405;51.850;-2.246;2022-08-11T13:08:39;3.10;;;2.13;;
40717;SDS011;26405;51.850;-2.246;2022-08-11T13:11:06;5.90;;;2.30;;
40717;SDS011;26405;51.850;-2.246;2022-08-11T13:16:18;3.15;;;2.22;;
40717;SDS011;26405;51.850;-2.246;2022-08-11T13:18:45;2.67;;;2.10;;
40717;SDS011;26405;51.850;-2.246;2022-08-11T13:21:11;4.20;;;2.30;;
40717;SDS011;26405;51.850;-2.246;2022-08-11T13:23:37;5.05;;;2.60;;
40717;SDS011;26405;51.850;-2.246;2022-08-11T13:26:02;4.65;;;2.50;;
40717;SDS011;26405;51.850;-2.246;2022-08-11T13:28:28;5.93;;;2.60;;
40717;SDS011;26405;51.850;-2.246;2022-08-11T13:30:54;5.85;;;2.60;;
40717;SDS011;26405;51.850;-2.246;2022-08-11T13:33:45;5.97;;;2.63;;
40717;SDS011;26405;51.850;-2.246;2022-08-11T13:36:13;4.65;;;2.42;;
40717;SDS011;26405;51.850;-2.246;2022-08-11T13:38:42;5.30;;;2.78;;
40717;SDS011;26405;51.850;-2.246;2022-08-11T13:41:08;4.70;;;2.45;;
40717;SDS011;26405;51.850;-2.246;2022-08-11T13:43:53;5.32;;;2.63;;
40717;SDS011;26405;51.850;-2.246;2022-08-11T13:46:19;4.07;;;2.35;;
40717;SDS011;26405;51.850;-2.246;2022-08-11T13:48:48;6.22;;;2.60;;
40717;SDS011;26405;51.850;-2.246;2022-08-11T13:51:13;3.05;;;2.40;;
40717;SDS011;26405;51.850;-2.246;2022-08-11T13:53:58;2.60;;;2.40;;
40717;SDS011;26405;51.850;-2.246;2022-08-11T13:56:24;5.57;;;2.53;;
40717;SDS011;26405;51.850;-2.246;2022-08-11T13:58:50;25.67;;;3.58;;
40717;SDS011;26405;51.850;-2.246;2022-08-11T14:01:17;3.80;;;2.38;;
40717;SDS011;26405;51.850;-2.246;2022-08-11T14:03:43;3.78;;;2.45;;
40717;SDS011;26405;51.850;-2.246;2022-08-11T14:06:09;5.53;;;2.50;;
40717;SDS011;26405;51.850;-2.246;2022-08-11T14:08:36;6.57;;;2.47;;
40717;SDS011;26405;51.850;-2.246;2022-08-11T14:11:02;4.70;;;2.33;;
40717;SDS011;26405;51.850;-2.246;2022-08-11T14:16:15;3.53;;;2.20;;
40717;SDS011;26405;51.850;-2.246;2022-08-11T14:18:43;2.60;;;2.40;;
40717;SDS011;26405;51.850;-2.246;2022-08-11T14:21:09;8.40;;;2.50;;
40717;SDS011;26405;51.850;-2.246;2022-08-11T14:23:55;8.48;;;2.72;;
40717;SDS011;26405;51.850;-2.246;2022-08-11T14:26:23;26.83;;;3.65;;
40717;SDS011;26405;51.850;-2.246;2022-08-11T14:29:00;4.18;;;2.17;;
40717;SDS011;26405;51.850;-2.246;2022-08-11T14:31:28;4.63;;;2.30;;
40717;SDS011;26405;51.850;-2.246;2022-08-11T14:33:54;8.18;;;2.30;;
40717;SDS011;26405;51.850;-2.246;2022-08-11T14:36:21;6.60;;;2.50;;
40717;SDS011;26405;51.850;-2.246;2022-08-11T14:38:47;6.00;;;2.53;;
40717;SDS011;26405;51.850;-2.246;2022-08-11T14:41:13;4.13;;;2.25;;
40717;SDS011;26405;51.850;-2.246;2022-08-11T14:43:57;4.53;;;2.35;;
40717;SDS011;26405;51.850;-2.246;2022-08-11T14:46:41;13.77;;;2.73;;
40717;SDS011;26405;51.850;-2.246;2022-08-11T14:51:51;3.63;;;2.40;;
40717;SDS011;26405;51.850;-2.246;2022-08-11T14:54:20;4.13;;;2.40;;
40717;SDS011;26405;51.850;-2.246;2022-08-11T14:57:04;7.03;;;2.72;;
40717;SDS011;26405;51.850;-2.246;2022-08-11T14:59:29;4.93;;;2.50;;
40717;SDS011;26405;51.850;-2.246;2022-08-11T15:01:54;7.00;;;2.60;;
40717;SDS011;26405;51.850;-2.246;2022-08-11T15:04:38;4.23;;;2.40;;
40717;SDS011;26405;51.850;-2.246;2022-08-11T15:07:04;5.27;;;2.60;;
40717;SDS011;26405;51.850;-2.246;2022-08-11T15:09:29;5.95;;;2.42;;
40717;SDS011;26405;51.850;-2.246;2022-08-11T15:11:55;19.30;;;3.22;;
40717;SDS011;26405;51.850;-2.246;2022-08-11T15:14:32;3.58;;;2.63;;
40717;SDS011;26405;51.850;-2.246;2022-08-11T15:17:16;6.45;;;2.58;;
40717;SDS011;26405;51.850;-2.246;2022-08-11T15:19:42;8.77;;;2.60;;
40717;SDS011;26405;51.850;-2.246;2022-08-11T15:22:28;3.42;;;2.40;;
40717;SDS011;26405;51.850;-2.246;2022-08-11T15:25:12;8.77;;;2.67;;
40717;SDS011;26405;51.850;-2.246;2022-08-11T15:27:38;3.97;;;2.70;;
40717;SDS011;26405;51.850;-2.246;2022-08-11T15:30:23;5.30;;;2.58;;
40717;SDS011;26405;51.850;-2.246;2022-08-11T15:33:08;5.95;;;2.58;;
40717;SDS011;26405;51.850;-2.246;2022-08-11T15:35:53;6.57;;;2.50;;
40717;SDS011;26405;51.850;-2.246;2022-08-11T15:38:39;4.38;;;2.45;;
40717;SDS011;26405;51.850;-2.246;2022-08-11T15:41:05;2.90;;;2.58;;
40717;SDS011;26405;51.850;-2.246;2022-08-11T15:43:52;3.35;;;2.42;;
40717;SDS011;26405;51.850;-2.246;2022-08-11T15:46:39;7.00;;;2.40;;
40717;SDS011;26405;51.850;-2.246;2022-08-11T15:49:21;4.60;;;2.55;;
40717;SDS011;26405;51.850;-2.246;2022-08-11T15:51:59;6.55;;;2.90;;
40717;SDS011;26405;51.850;-2.246;2022-08-11T15:54:26;5.45;;;2.63;;
40717;SDS011;26405;51.850;-2.246;2022-08-11T15:56:55;3.80;;;2.40;;
40717;SDS011;26405;51.850;-2.246;2022-08-11T15:59:22;4.75;;;2.78;;
40717;SDS011;26405;51.850;-2.246;2022-08-11T16:02:08;4.50;;;2.53;;
40717;SDS011;26405;51.850;-2.246;2022-08-11T16:04:58;7.65;;;2.72;;
40717;SDS011;26405;51.850;-2.246;2022-08-11T16:07:26;5.38;;;2.70;;
40717;SDS011;26405;51.850;-2.246;2022-08-11T16:09:58;5.28;;;2.50;;
40717;SDS011;26405;51.850;-2.246;2022-08-11T16:12:25;5.50;;;2.90;;
40717;SDS011;26405;51.850;-2.246;2022-08-11T16:14:57;7.80;;;2.88;;
40717;SDS011;26405;51.850;-2.246;2022-08-11T16:17:47;4.38;;;3.00;;
40717;SDS011;26405;51.850;-2.246;2022-08-11T16:20:13;4.78;;;2.88;;
40717;SDS011;26405;51.850;-2.246;2022-08-11T16:22:39;6.18;;;3.40;;
40717;SDS011;26405;51.850;-2.246;2022-08-11T16:25:11;8.10;;;3.75;;
40717;SDS011;26405;51.850;-2.246;2022-08-11T16:27:38;9.18;;;3.20;;
40717;SDS011;26405;51.850;-2.246;2022-08-11T16:30:04;4.72;;;2.92;;
40717;SDS011;26405;51.850;-2.246;2022-08-11T16:32:30;8.23;;;3.40;;
40717;SDS011;26405;51.850;-2.246;2022-08-11T16:34:57;4.80;;;3.15;;
40717;SDS011;26405;51.850;-2.246;2022-08-11T16:37:42;7.97;;;3.15;;
40717;SDS011;26405;51.850;-2.246;2022-08-11T16:42:51;7.20;;;2.92;;
40717;SDS011;26405;51.850;-2.246;2022-08-11T16:45:38;6.00;;;3.00;;
40717;SDS011;26405;51.850;-2.246;2022-08-11T16:48:22;5.20;;;2.70;;
40717;SDS011;26405;51.850;-2.246;2022-08-11T16:50:48;6.35;;;2.75;;
40717;SDS011;26405;51.850;-2.246;2022-08-11T16:53:14;4.47;;;2.75;;
40717;SDS011;26405;51.850;-2.246;2022-08-11T16:55:41;7.60;;;2.70;;
40717;SDS011;26405;51.850;-2.246;2022-08-11T16:58:07;5.72;;;3.08;;
40717;SDS011;26405;51.850;-2.246;2022-08-11T17:00:52;8.85;;;3.22;;
40717;SDS011;26405;51.850;-2.246;2022-08-11T17:03:17;14.07;;;3.27;;
40717;SDS011;26405;51.850;-2.246;2022-08-11T17:06:02;6.43;;;2.88;;
40717;SDS011;26405;51.850;-2.246;2022-08-11T17:08:47;5.80;;;2.90;;
40717;SDS011;26405;51.850;-2.246;2022-08-11T17:11:34;9.68;;;3.08;;
40717;SDS011;26405;51.850;-2.246;2022-08-11T17:14:40;7.00;;;2.90;;
40717;SDS011;26405;51.850;-2.246;2022-08-11T17:17:14;4.85;;;3.10;;
40717;SDS011;26405;51.850;-2.246;2022-08-11T17:19:43;5.60;;;3.20;;
40717;SDS011;26405;51.850;-2.246;2022-08-11T17:22:08;10.25;;;3.20;;
40717;SDS011;26405;51.850;-2.246;2022-08-11T17:24:52;5.53;;;3.03;;
40717;SDS011;26405;51.850;-2.246;2022-08-11T17:27:19;9.52;;;3.28;;
40717;SDS011;26405;51.850;-2.246;2022-08-11T17:29:50;11.25;;;4.25;;
40717;SDS011;26405;51.850;-2.246;2022-08-11T17:32:17;9.15;;;3.17;;
40717;SDS011;26405;51.850;-2.246;2022-08-11T17:35:03;13.23;;;3.42;;
40717;SDS011;26405;51.850;-2.246;2022-08-11T17:37:59;5.65;;;2.97;;
40717;SDS011;26405;51.850;-2.246;2022-08-11T17:40:25;12.68;;;3.90;;
40717;SDS011;26405;51.850;-2.246;2022-08-11T17:42:51;4.80;;;3.13;;
40717;SDS011;26405;51.850;-2.246;2022-08-11T17:45:46;13.00;;;3.83;;
40717;SDS011;26405;51.850;-2.246;2022-08-11T17:48:38;8.35;;;3.63;;
40717;SDS011;26405;51.850;-2.246;2022-08-11T17:51:09;25.67;;;6.37;;
40717;SDS011;26405;51.850;-2.246;2022-08-11T17:53:36;19.35;;;5.53;;
40717;SDS011;26405;51.850;-2.246;2022-08-11T17:56:21;12.10;;;5.00;;
40717;SDS011;26405;51.850;-2.246;2022-08-11T17:59:06;8.65;;;3.70;;
40717;SDS011;26405;51.850;-2.246;2022-08-11T18:01:50;10.05;;;4.50;;
40717;SDS011;26405;51.850;-2.246;2022-08-11T18:04:16;6.88;;;3.88;;
40717;SDS011;26405;51.850;-2.246;2022-08-11T18:06:41;6.38;;;4.38;;
40717;SDS011;26405;51.850;-2.246;2022-08-11T18:09:14;7.95;;;4.57;;
40717;SDS011;26405;51.850;-2.246;2022-08-11T18:11:59;7.70;;;4.57;;
40717;SDS011;26405;51.850;-2.246;2022-08-11T18:14:52;8.25;;;4.72;;
40717;SDS011;26405;51.850;-2.246;2022-08-11T18:17:36;6.43;;;5.07;;
40717;SDS011;26405;51.850;-2.246;2022-08-11T18:20:20;9.27;;;5.13;;
40717;SDS011;26405;51.850;-2.246;2022-08-11T18:23:06;7.10;;;4.45;;
40717;SDS011;26405;51.850;-2.246;2022-08-11T18:25:51;6.18;;;4.10;;
40717;SDS011;26405;51.850;-2.246;2022-08-11T18:28:37;7.53;;;4.93;;
40717;SDS011;26405;51.850;-2.246;2022-08-11T18:31:22;6.82;;;4.07;;
40717;SDS011;26405;51.850;-2.246;2022-08-11T18:34:09;5.07;;;3.80;;
40717;SDS011;26405;51.850;-2.246;2022-08-11T18:37:03;8.25;;;4.20;;
40717;SDS011;26405;51.850;-2.246;2022-08-11T18:40:22;11.32;;;3.53;;
40717;SDS011;26405;51.850;-2.246;2022-08-11T18:43:03;6.32;;;3.30;;
40717;SDS011;26405;51.850;-2.246;2022-08-11T18:45:47;7.22;;;3.05;;
40717;SDS011;26405;51.850;-2.246;2022-08-11T18:48:35;5.28;;;2.80;;
40717;SDS011;26405;51.850;-2.246;2022-08-11T18:51:20;4.45;;;3.28;;
40717;SDS011;26405;51.850;-2.246;2022-08-11T18:54:06;9.55;;;2.92;;
40717;SDS011;26405;51.850;-2.246;2022-08-11T18:56:50;4.07;;;2.58;;
40717;SDS011;26405;51.850;-2.246;2022-08-11T18:59:36;18.98;;;9.68;;
40717;SDS011;26405;51.850;-2.246;2022-08-11T19:02:22;22.25;;;11.00;;
40717;SDS011;26405;51.850;-2.246;2022-08-11T19:05:07;15.35;;;8.13;;